createdAt,value
2023-04-23T00:00:35.872Z,27.69
2023-04-23T00:01:35.797Z,27.36
2023-04-23T00:02:34.892Z,26.92
2023-04-23T00:03:35.115Z,27.77
2023-04-23T00:04:36.055Z,28.14
2023-04-23T00:05:35.058Z,25.97
2023-04-23T00:06:34.977Z,26.54
2023-04-23T00:07:34.989Z,26.67
2023-04-23T00:08:35.074Z,27.07
2023-04-23T00:09:36.091Z,27.73
2023-04-23T00:10:35.181Z,27.57
2023-04-23T00:11:36.168Z,27.52
2023-04-23T00:12:35.172Z,28.53
2023-04-23T00:13:35.260Z,26.69
2023-04-23T00:14:35.272Z,27.18
2023-04-23T00:15:36.296Z,26.72
2023-04-23T00:16:35.382Z,26.42
2023-04-23T00:17:35.399Z,26.30
2023-04-23T00:18:36.390Z,27.92
2023-04-23T00:19:35.418Z,28.54
2023-04-23T00:20:35.470Z,26.89
2023-04-23T00:21:35.532Z,26.52
2023-04-23T00:22:36.522Z,26.36
2023-04-23T00:23:35.628Z,26.76
2023-04-23T00:24:36.619Z,26.86
2023-04-23T00:25:36.671Z,25.78
2023-04-23T00:26:36.688Z,25.68
2023-04-23T00:27:36.756Z,27.80
2023-04-23T00:28:35.805Z,28.25
2023-04-23T00:29:35.798Z,27.56
2023-04-23T00:30:36.853Z,28.94
2023-04-23T00:31:35.903Z,26.47
2023-04-23T00:32:36.939Z,27.65
2023-04-23T00:33:35.991Z,27.54
2023-04-23T00:34:37.031Z,26.80
2023-04-23T00:35:36.052Z,27.59
2023-04-23T00:36:37.106Z,26.04
2023-04-23T00:37:36.113Z,27.83
2023-04-23T00:38:37.191Z,28.03
2023-04-23T00:39:37.213Z,28.05
2023-04-23T00:40:37.262Z,26.75
2023-04-23T00:41:37.326Z,27.03
2023-04-23T00:42:37.423Z,28.07
2023-04-23T00:43:37.383Z,26.48
2023-04-23T00:44:37.466Z,28.21
2023-04-23T00:45:37.502Z,26.93
2023-04-23T00:46:37.509Z,26.29
2023-04-23T00:47:37.633Z,26.36
2023-04-23T00:48:36.583Z,26.57
2023-04-23T00:49:37.634Z,26.17
2023-04-23T00:50:37.723Z,26.25
2023-04-23T00:51:36.731Z,28.87
2023-04-23T00:52:36.745Z,26.55
2023-04-23T00:53:37.794Z,27.24
2023-04-23T00:54:37.828Z,26.49
2023-04-23T00:55:37.866Z,29.15
2023-04-23T00:56:37.952Z,26.26
2023-04-23T00:57:36.990Z,27.28
2023-04-23T00:58:37.007Z,25.65
2023-04-23T00:59:38.068Z,27.66
2023-04-23T01:00:37.086Z,26.88
2023-04-23T01:01:37.816Z,25.56
2023-04-23T01:02:37.306Z,27.04
2023-04-23T01:03:37.362Z,25.59
2023-04-23T01:04:38.345Z,26.03
2023-04-23T01:05:37.358Z,27.49
2023-04-23T01:06:38.703Z,25.94
2023-04-23T01:07:37.379Z,27.12
2023-04-23T01:08:37.428Z,27.25
2023-04-23T01:09:37.481Z,25.79
2023-04-23T01:10:37.489Z,27.24
2023-04-23T01:11:38.611Z,27.73
2023-04-23T01:12:37.695Z,25.91
2023-04-23T01:13:37.657Z,27.97
2023-04-23T01:14:38.913Z,27.51
2023-04-23T01:15:37.839Z,29.00
2023-04-23T01:16:38.000Z,28.01
2023-04-23T01:17:38.811Z,27.99
2023-04-23T01:18:38.827Z,28.05
2023-04-23T01:19:38.860Z,26.60
2023-04-23T01:20:38.936Z,27.20
2023-04-23T01:21:37.959Z,26.52
2023-04-23T01:22:39.033Z,28.88
2023-04-23T01:23:38.045Z,27.38
2023-04-23T01:24:38.086Z,28.73
2023-04-23T01:25:39.097Z,27.50
2023-04-23T01:26:39.183Z,27.01
2023-04-23T01:27:38.228Z,28.33
2023-04-23T01:28:38.236Z,25.45
2023-04-23T01:29:38.356Z,27.74
2023-04-23T01:30:39.367Z,28.37
2023-04-23T01:31:39.391Z,26.08
2023-04-23T01:32:38.440Z,26.29
2023-04-23T01:33:39.482Z,27.35
2023-04-23T01:34:39.798Z,27.77
2023-04-23T01:35:38.588Z,26.16
2023-04-23T01:36:38.659Z,26.99
2023-04-23T01:37:39.681Z,26.40
2023-04-23T01:38:38.693Z,26.26
2023-04-23T01:39:38.771Z,26.24
2023-04-23T01:40:39.794Z,26.43
2023-04-23T01:41:38.831Z,26.04
2023-04-23T01:42:39.884Z,27.68
2023-04-23T01:43:39.907Z,25.00
2023-04-23T01:44:40.216Z,28.23
2023-04-23T01:45:39.100Z,28.01
2023-04-23T01:46:40.113Z,27.47
2023-04-23T01:47:39.130Z,28.04
2023-04-23T01:48:40.141Z,27.55
2023-04-23T01:49:40.180Z,26.51
2023-04-23T01:50:40.282Z,26.54
2023-04-23T01:51:39.299Z,28.59
2023-04-23T01:52:39.321Z,28.17
2023-04-23T01:53:39.386Z,27.15
2023-04-23T01:54:39.608Z,26.57
2023-04-23T01:55:40.458Z,27.37
2023-04-23T01:56:39.546Z,28.17
2023-04-23T01:57:40.556Z,28.81
2023-04-23T01:58:40.590Z,28.15
2023-04-23T01:59:40.630Z,27.78
2023-04-23T02:00:39.681Z,28.12
2023-04-23T02:01:39.947Z,26.38
2023-04-23T02:02:41.015Z,28.34
2023-04-23T02:03:40.075Z,27.38
2023-04-23T02:04:41.359Z,26.67
2023-04-23T02:05:40.912Z,27.77
2023-04-23T02:06:40.944Z,26.80
2023-04-23T02:07:39.987Z,26.43
2023-04-23T02:08:40.061Z,26.28
2023-04-23T02:09:40.082Z,27.64
2023-04-23T02:10:40.125Z,28.98
2023-04-23T02:11:40.196Z,28.99
2023-04-23T02:12:41.246Z,27.50
2023-04-23T02:13:41.303Z,26.88
2023-04-23T02:14:41.501Z,28.16
2023-04-23T02:15:41.375Z,26.47
2023-04-23T02:16:41.450Z,27.18
2023-04-23T02:17:40.554Z,25.09
2023-04-23T02:18:40.550Z,27.89
2023-04-23T02:19:40.623Z,27.55
2023-04-23T02:20:41.637Z,25.90
2023-04-23T02:21:40.693Z,28.43
2023-04-23T02:22:40.714Z,28.29
2023-04-23T02:23:40.755Z,29.42
2023-04-23T02:24:42.179Z,28.92
2023-04-23T02:25:41.864Z,25.00
2023-04-23T02:26:40.931Z,27.34
2023-04-23T02:27:40.966Z,26.27
2023-04-23T02:28:42.009Z,27.43
2023-04-23T02:29:42.057Z,28.60
2023-04-23T02:30:41.086Z,27.15
2023-04-23T02:31:42.286Z,27.65
2023-04-23T02:32:42.236Z,26.61
2023-04-23T02:33:42.283Z,27.54
2023-04-23T02:34:42.580Z,26.53
2023-04-23T02:35:42.343Z,27.67
2023-04-23T02:36:41.429Z,26.71
2023-04-23T02:37:42.464Z,27.88
2023-04-23T02:38:41.497Z,28.67
2023-04-23T02:39:42.971Z,28.10
2023-04-23T02:40:42.579Z,27.69
2023-04-23T02:41:42.683Z,25.44
2023-04-23T02:42:43.891Z,26.60
2023-04-23T02:43:41.798Z,26.44
2023-04-23T02:44:42.331Z,27.33
2023-04-23T02:45:42.944Z,26.72
2023-04-23T02:46:41.968Z,28.13
2023-04-23T02:47:42.045Z,26.49
2023-04-23T02:48:43.065Z,25.77
2023-04-23T02:49:43.139Z,26.39
2023-04-23T02:50:43.159Z,27.34
2023-04-23T02:51:42.209Z,26.75
2023-04-23T02:52:42.312Z,26.66
2023-04-23T02:53:43.300Z,26.38
2023-04-23T02:54:43.507Z,26.44
2023-04-23T02:55:42.395Z,26.21
2023-04-23T02:56:43.430Z,26.76
2023-04-23T02:57:43.504Z,26.95
2023-04-23T02:58:43.524Z,25.10
2023-04-23T02:59:43.636Z,26.64
2023-04-23T03:00:42.667Z,26.78
2023-04-23T03:01:43.648Z,27.38
2023-04-23T03:02:43.814Z,26.82
2023-04-23T03:03:43.998Z,28.25
2023-04-23T03:04:43.055Z,29.42
2023-04-23T03:05:43.874Z,29.61
2023-04-23T03:06:44.014Z,26.61
2023-04-23T03:07:42.962Z,29.64
2023-04-23T03:08:43.969Z,28.47
2023-04-23T03:09:42.998Z,28.73
2023-04-23T03:10:43.070Z,27.53
2023-04-23T03:11:44.146Z,29.21
2023-04-23T03:12:43.163Z,28.18
2023-04-23T03:13:44.197Z,26.52
2023-04-23T03:14:44.268Z,28.60
2023-04-23T03:15:44.278Z,27.99
2023-04-23T03:16:44.390Z,29.17
2023-04-23T03:17:43.365Z,28.99
2023-04-23T03:18:43.430Z,29.17
2023-04-23T03:19:44.465Z,27.99
2023-04-23T03:20:44.498Z,28.30
2023-04-23T03:21:43.566Z,27.32
2023-04-23T03:22:44.659Z,26.57
2023-04-23T03:23:43.682Z,27.01
2023-04-23T03:24:44.690Z,26.60
2023-04-23T03:25:44.750Z,28.42
2023-04-23T03:26:43.790Z,26.79
2023-04-23T03:27:44.834Z,28.91
2023-04-23T03:28:44.933Z,28.04
2023-04-23T03:29:43.910Z,27.01
2023-04-23T03:30:45.010Z,28.08
2023-04-23T03:31:44.030Z,26.47
2023-04-23T03:32:44.123Z,27.72
2023-04-23T03:33:45.120Z,27.61
2023-04-23T03:34:44.162Z,26.26
2023-04-23T03:35:44.171Z,25.51
2023-04-23T03:36:45.207Z,27.18
2023-04-23T03:37:45.283Z,27.43
2023-04-23T03:38:45.321Z,27.06
2023-04-23T03:39:45.395Z,26.56
2023-04-23T03:40:45.402Z,27.98
2023-04-23T03:41:44.452Z,26.20
2023-04-23T03:42:45.522Z,28.69
2023-04-23T03:43:44.543Z,27.22
2023-04-23T03:44:45.596Z,28.47
2023-04-23T03:45:45.762Z,27.51
2023-04-23T03:46:45.702Z,27.99
2023-04-23T03:47:45.788Z,28.45
2023-04-23T03:48:45.786Z,29.57
2023-04-23T03:49:45.835Z,26.80
2023-04-23T03:50:45.890Z,25.27
2023-04-23T03:51:45.997Z,25.58
2023-04-23T03:52:45.025Z,26.93
2023-04-23T03:53:46.072Z,27.83
2023-04-23T03:54:46.088Z,29.17
2023-04-23T03:55:45.119Z,27.34
2023-04-23T03:56:45.161Z,27.27
2023-04-23T03:57:45.251Z,27.46
2023-04-23T03:58:46.258Z,26.87
2023-04-23T03:59:46.314Z,28.09
2023-04-23T04:00:46.465Z,28.01
2023-04-23T04:01:45.452Z,27.17
2023-04-23T04:02:45.598Z,26.06
2023-04-23T04:03:45.614Z,26.18
2023-04-23T04:04:47.306Z,29.09
2023-04-23T04:05:46.728Z,26.80
2023-04-23T04:06:46.643Z,25.89
2023-04-23T04:07:46.714Z,26.40
2023-04-23T04:08:45.733Z,26.93
2023-04-23T04:09:45.812Z,25.00
2023-04-23T04:10:46.882Z,26.10
2023-04-23T04:11:46.893Z,26.49
2023-04-23T04:12:45.993Z,25.87
2023-04-23T04:13:46.998Z,25.92
2023-04-23T04:14:47.052Z,25.72
2023-04-23T04:15:47.121Z,25.64
2023-04-23T04:16:47.176Z,25.17
2023-04-23T04:17:47.217Z,26.67
2023-04-23T04:18:47.238Z,27.71
2023-04-23T04:19:46.280Z,26.76
2023-04-23T04:20:47.336Z,26.51
2023-04-23T04:21:47.387Z,26.95
2023-04-23T04:22:46.426Z,25.73
2023-04-23T04:23:46.451Z,28.58
2023-04-23T04:24:47.662Z,27.65
2023-04-23T04:25:46.572Z,27.32
2023-04-23T04:26:47.626Z,25.62
2023-04-23T04:27:47.683Z,26.58
2023-04-23T04:28:47.706Z,27.42
2023-04-23T04:29:47.735Z,27.55
2023-04-23T04:30:46.797Z,26.30
2023-04-23T04:31:46.838Z,26.94
2023-04-23T04:32:47.905Z,29.26
2023-04-23T04:33:47.615Z,28.54
2023-04-23T04:34:48.373Z,28.66
2023-04-23T04:35:48.040Z,27.96
2023-04-23T04:36:48.080Z,28.89
2023-04-23T04:37:48.195Z,26.75
2023-04-23T04:38:48.151Z,28.19
2023-04-23T04:39:48.212Z,26.23
2023-04-23T04:40:47.236Z,28.27
2023-04-23T04:41:48.320Z,26.83
2023-04-23T04:42:48.337Z,26.99
2023-04-23T04:43:48.411Z,28.06
2023-04-23T04:44:47.818Z,27.17
2023-04-23T04:45:47.742Z,28.60
2023-04-23T04:46:48.557Z,27.54
2023-04-23T04:47:47.574Z,27.93
2023-04-23T04:48:48.653Z,25.75
2023-04-23T04:49:48.664Z,26.23
2023-04-23T04:50:48.676Z,27.34
2023-04-23T04:51:49.392Z,25.90
2023-04-23T04:52:48.788Z,26.22
2023-04-23T04:53:47.873Z,28.13
2023-04-23T04:54:48.904Z,25.85
2023-04-23T04:55:48.903Z,27.09
2023-04-23T04:56:48.966Z,26.90
2023-04-23T04:57:49.025Z,26.28
2023-04-23T04:58:49.088Z,27.07
2023-04-23T04:59:49.145Z,25.91
2023-04-23T05:00:48.162Z,26.12
2023-04-23T05:01:48.183Z,28.75
2023-04-23T05:02:49.298Z,25.31
2023-04-23T05:03:49.578Z,27.50
2023-04-23T05:04:49.344Z,26.28
2023-04-23T05:05:49.347Z,27.30
2023-04-23T05:06:48.386Z,30.02
2023-04-23T05:07:49.485Z,28.27
2023-04-23T05:08:49.495Z,27.14
2023-04-23T05:09:48.551Z,27.60
2023-04-23T05:10:49.605Z,26.97
2023-04-23T05:11:49.691Z,26.69
2023-04-23T05:12:49.651Z,26.05
2023-04-23T05:13:48.758Z,28.01
2023-04-23T05:14:48.760Z,28.92
2023-04-23T05:15:48.819Z,26.79
2023-04-23T05:16:49.930Z,26.16
2023-04-23T05:17:49.952Z,29.93
2023-04-23T05:18:48.965Z,27.08
2023-04-23T05:19:49.995Z,26.05
2023-04-23T05:20:49.022Z,27.78
2023-04-23T05:21:50.083Z,26.22
2023-04-23T05:22:50.131Z,27.68
2023-04-23T05:23:49.138Z,26.23
2023-04-23T05:24:49.187Z,26.83
2023-04-23T05:25:51.376Z,27.72
2023-04-23T05:26:50.256Z,26.42
2023-04-23T05:27:50.313Z,25.78
2023-04-23T05:28:50.378Z,28.89
2023-04-23T05:29:49.406Z,27.83
2023-04-23T05:30:50.454Z,27.63
2023-04-23T05:31:50.650Z,27.69
2023-04-23T05:32:49.633Z,27.22
2023-04-23T05:33:51.013Z,29.15
2023-04-23T05:34:49.652Z,26.59
2023-04-23T05:35:50.683Z,27.65
2023-04-23T05:36:50.702Z,27.46
2023-04-23T05:37:50.742Z,27.64
2023-04-23T05:38:49.796Z,27.39
2023-04-23T05:39:49.833Z,27.96
2023-04-23T05:40:50.908Z,26.73
2023-04-23T05:41:50.936Z,28.01
2023-04-23T05:42:49.960Z,26.94
2023-04-23T05:43:50.003Z,26.07
2023-04-23T05:44:50.080Z,27.03
2023-04-23T05:45:50.100Z,28.52
2023-04-23T05:46:51.185Z,26.22
2023-04-23T05:47:51.230Z,25.72
2023-04-23T05:48:51.216Z,28.61
2023-04-23T05:49:50.260Z,27.33
2023-04-23T05:50:51.301Z,26.29
2023-04-23T05:51:51.341Z,26.52
2023-04-23T05:52:50.440Z,28.14
2023-04-23T05:53:51.445Z,27.69
2023-04-23T05:54:51.460Z,27.64
2023-04-23T05:55:51.629Z,28.08
2023-04-23T05:56:53.436Z,26.19
2023-04-23T05:57:50.524Z,26.32
2023-04-23T05:58:51.560Z,26.43
2023-04-23T05:59:51.533Z,26.63
2023-04-23T06:00:51.515Z,26.98
2023-04-23T06:01:50.534Z,27.41
2023-04-23T06:02:51.599Z,26.50
2023-04-23T06:03:51.772Z,28.39
2023-04-23T06:04:51.717Z,26.20
2023-04-23T06:05:51.569Z,26.95
2023-04-23T06:06:51.479Z,26.42
2023-04-23T06:07:50.481Z,25.93
2023-04-23T06:08:51.459Z,26.64
2023-04-23T06:09:51.450Z,27.06
2023-04-23T06:10:50.483Z,26.53
2023-04-23T06:11:50.442Z,27.38
2023-04-23T06:12:50.438Z,25.31
2023-04-23T06:13:51.452Z,25.32
2023-04-23T06:14:51.431Z,27.68
2023-04-23T06:15:51.479Z,26.46
2023-04-23T06:16:50.434Z,26.87
2023-04-23T06:17:50.421Z,27.63
2023-04-23T06:18:51.395Z,25.12
2023-04-23T06:19:50.384Z,26.98
2023-04-23T06:20:51.420Z,27.87
2023-04-23T06:21:51.395Z,28.08
2023-04-23T06:22:50.457Z,25.75
2023-04-23T06:23:51.464Z,25.02
2023-04-23T06:24:50.493Z,27.97
2023-04-23T06:25:51.543Z,25.90
2023-04-23T06:26:50.610Z,27.51
2023-04-23T06:27:51.624Z,26.12
2023-04-23T06:28:50.717Z,27.59
2023-04-23T06:29:51.701Z,28.20
2023-04-23T06:30:51.742Z,26.52
2023-04-23T06:31:51.867Z,27.83
2023-04-23T06:32:51.840Z,26.93
2023-04-23T06:33:51.885Z,26.67
2023-04-23T06:35:00.819Z,26.10
2023-04-23T06:35:51.932Z,26.43
2023-04-23T06:36:51.931Z,26.81
2023-04-23T06:37:51.925Z,26.55
2023-04-23T06:38:51.925Z,26.59
2023-04-23T06:39:51.916Z,27.77
2023-04-23T06:40:50.944Z,27.11
2023-04-23T06:41:51.899Z,29.05
2023-04-23T06:42:50.892Z,27.34
2023-04-23T06:43:50.869Z,27.41
2023-04-23T06:44:50.863Z,25.67
2023-04-23T06:45:51.867Z,28.34
2023-04-23T06:46:51.914Z,25.71
2023-04-23T06:47:51.073Z,29.57
2023-04-23T06:48:50.833Z,26.65
2023-04-23T06:49:51.834Z,26.79
2023-04-23T06:50:51.812Z,27.61
2023-04-23T06:51:51.799Z,27.22
2023-04-23T06:52:51.802Z,26.69
2023-04-23T06:53:51.851Z,27.83
2023-04-23T06:54:50.784Z,28.56
2023-04-23T06:55:51.777Z,27.78
2023-04-23T06:56:50.781Z,28.40
2023-04-23T06:57:50.745Z,29.02
2023-04-23T06:58:51.771Z,27.53
2023-04-23T06:59:51.791Z,28.40
2023-04-23T07:00:50.754Z,26.75
2023-04-23T07:01:51.743Z,26.00
2023-04-23T07:02:50.799Z,26.73
2023-04-23T07:03:50.773Z,27.96
2023-04-23T07:04:51.799Z,27.00
2023-04-23T07:05:50.790Z,26.59
2023-04-23T07:06:51.838Z,26.74
2023-04-23T07:07:51.883Z,28.58
2023-04-23T07:08:50.924Z,27.69
2023-04-23T07:09:51.008Z,26.84
2023-04-23T07:10:52.017Z,27.95
2023-04-23T07:11:52.079Z,29.04
2023-04-23T07:12:52.101Z,27.50
2023-04-23T07:13:51.155Z,27.97
2023-04-23T07:14:52.209Z,27.88
2023-04-23T07:15:51.252Z,26.90
2023-04-23T07:16:51.321Z,27.98
2023-04-23T07:17:51.406Z,26.71
2023-04-23T07:18:52.402Z,29.10
2023-04-23T07:19:52.475Z,27.79
2023-04-23T07:20:51.500Z,27.82
2023-04-23T07:21:52.543Z,26.80
2023-04-23T07:22:51.587Z,26.14
2023-04-23T07:23:52.697Z,28.29
2023-04-23T07:24:52.689Z,27.81
2023-04-23T07:25:52.734Z,28.91
2023-04-23T07:26:52.777Z,27.63
2023-04-23T07:27:52.813Z,27.59
2023-04-23T07:28:53.119Z,28.56
2023-04-23T07:29:51.968Z,26.86
2023-04-23T07:30:51.968Z,27.87
2023-04-23T07:31:53.069Z,27.32
2023-04-23T07:32:52.060Z,29.31
2023-04-23T07:33:53.093Z,29.50
2023-04-23T07:34:52.134Z,29.33
2023-04-23T07:35:52.222Z,27.85
2023-04-23T07:36:53.221Z,30.07
2023-04-23T07:37:53.265Z,29.12
2023-04-23T07:38:53.332Z,30.05
2023-04-23T07:39:52.360Z,28.44
2023-04-23T07:40:53.397Z,30.37
2023-04-23T07:41:52.486Z,30.70
2023-04-23T07:42:53.486Z,32.69
2023-04-23T07:43:53.512Z,32.59
2023-04-23T07:44:53.566Z,29.85
2023-04-23T07:45:52.700Z,30.04
2023-04-23T07:46:53.638Z,29.08
2023-04-23T07:47:52.773Z,31.34
2023-04-23T07:48:52.709Z,32.59
2023-04-23T07:49:52.755Z,31.03
2023-04-23T07:50:53.773Z,30.19
2023-04-23T07:51:53.843Z,30.93
2023-04-23T07:52:53.877Z,30.39
2023-04-23T07:53:53.907Z,30.60
2023-04-23T07:54:52.933Z,32.19
2023-04-23T07:55:53.914Z,31.67
2023-04-23T07:56:53.988Z,32.10
2023-04-23T07:57:53.990Z,30.28
2023-04-23T07:58:53.013Z,30.98
2023-04-23T07:59:54.047Z,33.63
2023-04-23T08:00:53.051Z,32.68
2023-04-23T08:01:53.055Z,31.77
2023-04-23T08:02:54.240Z,32.64
2023-04-23T08:03:53.385Z,31.78
2023-04-23T08:04:53.222Z,33.32
2023-04-23T08:05:54.186Z,31.49
2023-04-23T08:06:54.166Z,33.25
2023-04-23T08:07:53.810Z,32.63
2023-04-23T08:08:54.213Z,31.70
2023-04-23T08:09:54.215Z,35.93
2023-04-23T08:10:54.201Z,37.03
2023-04-23T08:11:54.263Z,37.66
2023-04-23T08:12:54.235Z,37.48
2023-04-23T08:13:54.241Z,36.66
2023-04-23T08:14:54.321Z,37.70
2023-04-23T08:15:54.457Z,39.54
2023-04-23T08:16:54.313Z,38.21
2023-04-23T08:17:54.338Z,39.61
2023-04-23T08:19:04.996Z,36.76
2023-04-23T08:19:54.299Z,37.17
2023-04-23T08:20:54.323Z,37.71
2023-04-23T08:21:53.340Z,38.68
2023-04-23T08:22:53.268Z,39.55
2023-04-23T08:23:53.281Z,39.50
2023-04-23T08:24:54.391Z,40.95
2023-04-23T08:25:54.301Z,38.98
2023-04-23T08:26:54.411Z,39.42
2023-04-23T08:27:54.241Z,39.01
2023-04-23T08:28:53.254Z,40.08
2023-04-23T08:29:53.221Z,40.36
2023-04-23T08:30:54.204Z,40.14
2023-04-23T08:31:53.327Z,37.86
2023-04-23T08:32:54.288Z,38.84
2023-04-23T08:33:53.200Z,38.19
2023-04-23T08:34:54.184Z,38.93
2023-04-23T08:35:54.167Z,39.09
2023-04-23T08:36:54.315Z,37.93
2023-04-23T08:37:54.169Z,37.80
2023-04-23T08:38:53.163Z,38.37
2023-04-23T08:39:54.297Z,39.40
2023-04-23T08:40:53.133Z,39.42
2023-04-23T08:41:53.181Z,39.06
2023-04-23T08:42:54.122Z,38.58
2023-04-23T08:43:53.111Z,39.54
2023-04-23T08:44:53.100Z,36.94
2023-04-23T08:45:54.102Z,37.78
2023-04-23T08:46:53.122Z,35.72
2023-04-23T08:47:54.269Z,39.81
2023-04-23T08:48:54.066Z,35.77
2023-04-23T08:49:54.069Z,36.30
2023-04-23T08:50:53.054Z,38.38
2023-04-23T08:51:53.059Z,36.36
2023-04-23T08:52:54.186Z,37.05
2023-04-23T08:53:53.115Z,38.54
2023-04-23T08:54:53.045Z,38.60
2023-04-23T08:55:54.045Z,37.84
2023-04-23T08:56:53.018Z,39.30
2023-04-23T08:57:53.032Z,35.99
2023-04-23T08:58:56.373Z,38.86
2023-04-23T08:59:53.037Z,39.00
2023-04-23T09:00:54.159Z,38.88
2023-04-23T09:01:54.047Z,37.65
2023-04-23T09:02:54.260Z,39.40
2023-04-23T09:03:54.200Z,37.73
2023-04-23T09:04:55.637Z,33.61
2023-04-23T09:05:52.955Z,33.87
2023-04-23T09:06:53.964Z,34.54
2023-04-23T09:07:53.958Z,35.65
2023-04-23T09:08:52.951Z,36.78
2023-04-23T09:09:52.938Z,39.26
2023-04-23T09:10:53.910Z,37.68
2023-04-23T09:11:54.933Z,36.17
2023-04-23T09:12:52.911Z,40.41
2023-04-23T09:13:53.994Z,35.24
2023-04-23T09:14:52.895Z,36.25
2023-04-23T09:15:53.987Z,37.06
2023-04-23T09:16:54.134Z,37.44
2023-04-23T09:17:52.959Z,37.94
2023-04-23T09:18:53.855Z,35.68
2023-04-23T09:19:53.982Z,34.76
2023-04-23T09:20:52.925Z,36.30
2023-04-23T09:21:54.330Z,31.35
2023-04-23T09:22:54.038Z,32.79
2023-04-23T09:23:53.062Z,32.88
2023-04-23T09:24:53.146Z,33.92
2023-04-23T09:25:53.177Z,35.96
2023-04-23T09:26:54.207Z,32.37
2023-04-23T09:27:53.264Z,35.56
2023-04-23T09:28:54.283Z,32.84
2023-04-23T09:29:53.324Z,35.37
2023-04-23T09:30:53.407Z,33.30
2023-04-23T09:31:54.463Z,34.88
2023-04-23T09:32:54.438Z,33.18
2023-04-23T09:33:54.496Z,34.21
2023-04-23T09:34:54.493Z,33.51
2023-04-23T09:35:53.538Z,33.32
2023-04-23T09:36:54.597Z,33.17
2023-04-23T09:37:53.640Z,32.90
2023-04-23T09:38:54.676Z,35.48
2023-04-23T09:39:53.722Z,31.04
2023-04-23T09:40:54.729Z,33.23
2023-04-23T09:41:53.843Z,32.72
2023-04-23T09:42:53.848Z,33.88
2023-04-23T09:43:53.888Z,34.97
2023-04-23T09:44:55.186Z,33.70
2023-04-23T09:45:55.027Z,31.58
2023-04-23T09:46:55.036Z,36.07
2023-04-23T09:47:55.118Z,35.38
2023-04-23T09:48:55.174Z,38.51
2023-04-23T09:49:55.309Z,34.39
2023-04-23T09:50:55.334Z,35.89
2023-04-23T09:51:55.346Z,31.84
2023-04-23T09:52:55.486Z,34.17
2023-04-23T09:53:54.382Z,31.69
2023-04-23T09:54:55.513Z,31.37
2023-04-23T09:55:55.445Z,32.61
2023-04-23T09:56:55.535Z,36.27
2023-04-23T09:57:54.497Z,30.53
2023-04-23T09:58:55.623Z,30.36
2023-04-23T10:00:03.680Z,33.69
2023-04-23T10:00:55.822Z,33.94
2023-04-23T10:01:54.544Z,34.66
2023-04-23T10:03:54.838Z,34.55
2023-04-23T10:05:03.254Z,29.80
2023-04-23T10:06:01.042Z,33.87
2023-04-23T10:07:54.588Z,34.00
2023-04-23T10:08:54.504Z,34.05
2023-04-23T10:09:55.496Z,33.02
2023-04-23T10:11:06.495Z,33.48
2023-04-23T10:11:55.614Z,34.02
2023-04-23T10:12:55.502Z,31.09
2023-04-23T10:13:54.507Z,35.05
2023-04-23T10:14:55.456Z,30.85
2023-04-23T10:15:55.571Z,29.38
2023-04-23T10:16:55.445Z,31.59
2023-04-23T10:17:55.648Z,27.60
2023-04-23T10:18:54.455Z,28.32
2023-04-23T10:19:54.505Z,29.03
2023-04-23T10:20:55.426Z,27.46
2023-04-23T10:22:00.020Z,31.10
2023-04-23T10:22:55.461Z,31.29
2023-04-23T10:23:54.390Z,27.85
2023-04-23T10:24:54.424Z,26.91
2023-04-23T10:25:55.435Z,31.97
2023-04-23T10:26:55.391Z,27.05
2023-04-23T10:27:55.511Z,27.64
2023-04-23T10:28:55.356Z,29.36
2023-04-23T10:29:54.470Z,25.00
2023-04-23T10:30:54.564Z,30.33
2023-04-23T10:31:54.400Z,27.50
2023-04-23T10:32:55.562Z,26.90
2023-04-23T10:33:58.909Z,30.29
2023-04-23T10:34:55.442Z,30.41
2023-04-23T10:35:55.380Z,30.75
2023-04-23T10:36:55.399Z,30.67
2023-04-23T10:37:55.460Z,26.84
2023-04-23T10:38:58.434Z,28.74
2023-04-23T10:39:55.396Z,30.49
2023-04-23T10:40:55.496Z,30.92
2023-04-23T10:41:55.324Z,31.30
2023-04-23T10:42:55.428Z,32.21
2023-04-23T10:43:54.367Z,28.88
2023-04-23T10:45:02.644Z,30.58
2023-04-23T10:45:55.538Z,30.77
2023-04-23T10:46:55.429Z,31.19
2023-04-23T10:47:55.519Z,30.95
2023-04-23T10:48:54.394Z,30.90
2023-04-23T10:49:55.280Z,30.81
2023-04-23T10:51:09.581Z,31.51
2023-04-23T10:52:54.475Z,31.95
2023-04-23T10:53:54.296Z,32.42
2023-04-23T10:54:54.283Z,32.16
2023-04-23T10:55:55.257Z,31.29
2023-04-23T10:56:54.284Z,28.09
2023-04-23T10:57:55.363Z,25.88
2023-04-23T10:58:55.276Z,27.22
2023-04-23T10:59:55.333Z,27.37
2023-04-23T11:00:55.263Z,25.00
2023-04-23T11:01:55.429Z,28.85
2023-04-23T11:02:55.380Z,28.01
2023-04-23T11:03:55.367Z,28.92
2023-04-23T11:04:54.278Z,32.86
2023-04-23T11:05:55.181Z,30.56
2023-04-23T11:06:55.197Z,26.38
2023-04-23T11:07:55.180Z,28.10
2023-04-23T11:08:54.448Z,31.25
2023-04-23T11:09:55.222Z,28.22
2023-04-23T11:10:55.172Z,26.91
2023-04-23T11:11:55.205Z,30.21
2023-04-23T11:12:55.138Z,30.35
2023-04-23T11:13:55.132Z,32.54
2023-04-23T11:14:54.128Z,32.41
2023-04-23T11:15:55.152Z,30.96
2023-04-23T11:16:55.436Z,31.00
2023-04-23T11:17:55.240Z,30.73
2023-04-23T11:18:55.121Z,33.14
2023-04-23T11:19:54.119Z,31.02
2023-04-23T11:20:54.090Z,30.94
2023-04-23T11:21:54.164Z,31.05
2023-04-23T11:22:55.203Z,29.68
2023-04-23T11:23:54.252Z,29.44
2023-04-23T11:24:55.279Z,31.08
2023-04-23T11:25:55.351Z,32.25
2023-04-23T11:26:55.421Z,34.08
2023-04-23T11:27:55.480Z,30.03
2023-04-23T11:28:55.499Z,36.21
2023-04-23T11:29:55.615Z,27.09
2023-04-23T11:30:54.666Z,28.42
2023-04-23T11:32:54.885Z,35.60
2023-04-23T11:33:54.727Z,30.18
2023-04-23T11:34:55.663Z,33.77
2023-04-23T11:35:55.615Z,30.71
2023-04-23T11:36:54.653Z,26.15
2023-04-23T11:37:54.586Z,27.49
2023-04-23T11:38:55.587Z,26.22
2023-04-23T11:39:55.603Z,27.26
2023-04-23T11:40:55.589Z,32.15
2023-04-23T11:41:55.725Z,33.18
2023-04-23T11:42:55.710Z,31.26
2023-04-23T11:43:55.583Z,28.52
2023-04-23T11:44:55.558Z,26.47
2023-04-23T11:45:54.631Z,28.58
2023-04-23T11:46:57.841Z,26.34
2023-04-23T11:47:55.593Z,26.70
2023-04-23T11:48:54.510Z,26.89
2023-04-23T11:49:54.514Z,28.78
2023-04-23T11:50:54.519Z,28.99
2023-04-23T11:51:54.539Z,26.25
2023-04-23T11:52:55.539Z,29.02
2023-04-23T11:53:55.486Z,28.78
2023-04-23T11:54:55.497Z,29.77
2023-04-23T11:55:55.483Z,26.44
2023-04-23T11:56:54.481Z,30.76
2023-04-23T11:57:54.482Z,28.90
2023-04-23T11:58:54.492Z,29.47
2023-04-23T11:59:55.443Z,29.12
2023-04-23T12:00:55.426Z,28.37
2023-04-23T12:01:55.436Z,26.75
2023-04-23T12:02:55.586Z,28.33
2023-04-23T12:03:55.542Z,29.12
2023-04-23T12:04:54.497Z,32.01
2023-04-23T12:05:55.418Z,27.83
2023-04-23T12:06:55.402Z,29.78
2023-04-23T12:07:54.407Z,29.73
2023-04-23T12:08:54.382Z,29.80
2023-04-23T12:09:54.381Z,25.96
2023-04-23T12:10:55.382Z,29.96
2023-04-23T12:11:55.369Z,30.50
2023-04-23T12:12:55.362Z,29.67
2023-04-23T12:13:55.383Z,30.35
2023-04-23T12:14:55.365Z,33.09
2023-04-23T12:15:55.459Z,29.48
2023-04-23T12:16:55.697Z,28.16
2023-04-23T12:17:55.571Z,29.03
2023-04-23T12:18:54.539Z,29.07
2023-04-23T12:19:55.657Z,32.61
2023-04-23T12:20:54.718Z,29.27
2023-04-23T12:21:55.915Z,28.81
2023-04-23T12:22:54.706Z,31.63
2023-04-23T12:23:55.760Z,29.55
2023-04-23T12:24:55.805Z,30.22
2023-04-23T12:25:55.868Z,29.94
2023-04-23T12:26:56.033Z,31.23
2023-04-23T12:27:55.924Z,33.06
2023-04-23T12:28:55.954Z,33.18
2023-04-23T12:29:54.997Z,29.34
2023-04-23T12:30:55.069Z,29.10
2023-04-23T12:31:55.129Z,32.43
2023-04-23T12:32:55.129Z,31.31
2023-04-23T12:33:55.165Z,32.76
2023-04-23T12:34:55.225Z,31.15
2023-04-23T12:35:55.260Z,31.40
2023-04-23T12:36:55.330Z,27.51
2023-04-23T12:37:56.443Z,30.00
2023-04-23T12:38:55.458Z,30.75
2023-04-23T12:39:55.514Z,30.77
2023-04-23T12:40:55.588Z,30.77
2023-04-23T12:41:56.557Z,31.78
2023-04-23T12:42:55.605Z,30.05
2023-04-23T12:43:56.664Z,28.83
2023-04-23T12:44:56.758Z,33.49
2023-04-23T12:45:56.759Z,30.87
2023-04-23T12:46:57.890Z,31.80
2023-04-23T12:47:56.877Z,30.31
2023-04-23T12:48:56.904Z,26.22
2023-04-23T12:49:55.952Z,30.78
2023-04-23T12:50:56.982Z,32.53
2023-04-23T12:51:56.024Z,34.69
2023-04-23T12:52:57.043Z,33.81
2023-04-23T12:53:57.104Z,28.49
2023-04-23T12:54:57.207Z,28.59
2023-04-23T12:55:56.204Z,29.97
2023-04-23T12:56:56.230Z,29.90